createdAt,value
2022-08-16T00:01:59.823Z,5.83
2022-08-16T00:04:28.508Z,6.53
2022-08-16T00:06:56.211Z,5.37
2022-08-16T00:09:25.425Z,5.67
2022-08-16T00:11:55.515Z,5.80
2022-08-16T00:14:29.246Z,5.43
2022-08-16T00:17:16.044Z,5.90
2022-08-16T00:19:47.504Z,5.63
2022-08-16T00:22:25.041Z,5.10
2022-08-16T00:24:54.877Z,6.27
2022-08-16T00:27:23.735Z,5.43
2022-08-16T00:30:08.751Z,5.70
2022-08-16T00:32:45.252Z,5.83
2022-08-16T00:35:20.682Z,5.10
2022-08-16T00:37:57.688Z,5.03
2022-08-16T00:40:36.578Z,5.33
2022-08-16T00:43:11.986Z,5.20
2022-08-16T00:46:00.469Z,6.63
2022-08-16T00:48:43.804Z,5.60
2022-08-16T00:51:16.202Z,6.43
2022-08-16T00:53:49.567Z,5.77
2022-08-16T00:56:56.580Z,5.87
2022-08-16T00:59:15.256Z,5.93
2022-08-16T01:01:45.358Z,5.60
2022-08-16T01:04:29.646Z,5.90
2022-08-16T01:07:06.663Z,5.33
2022-08-16T01:09:42.950Z,6.77
2022-08-16T01:12:11.936Z,5.30
2022-08-16T01:14:58.940Z,5.43
2022-08-16T01:17:29.385Z,5.53
2022-08-16T01:20:24.447Z,5.40
2022-08-16T01:23:01.649Z,5.07
2022-08-16T01:25:36.268Z,6.30
2022-08-16T01:28:23.439Z,5.27
2022-08-16T01:31:08.517Z,6.47
2022-08-16T01:33:36.100Z,5.20
2022-08-16T01:36:09.459Z,5.03
2022-08-16T01:38:56.879Z,5.07
2022-08-16T01:41:30.388Z,5.00
2022-08-16T01:44:00.891Z,5.93
2022-08-16T01:46:39.555Z,5.80
2022-08-16T01:49:19.419Z,5.20
2022-08-16T01:52:04.468Z,5.70
2022-08-16T01:54:32.246Z,5.80
2022-08-16T01:57:04.729Z,5.70
2022-08-16T01:59:33.778Z,6.40
2022-08-16T02:02:01.947Z,5.07
2022-08-16T02:04:49.550Z,5.73
2022-08-16T02:07:23.798Z,5.00
2022-08-16T02:10:01.917Z,6.23
2022-08-16T02:12:50.678Z,7.17
2022-08-16T02:15:29.431Z,5.40
2022-08-16T02:18:02.123Z,7.97
2022-08-16T02:20:35.088Z,5.97
2022-08-16T02:23:06.155Z,6.30
2022-08-16T02:25:52.279Z,5.70
2022-08-16T02:28:32.147Z,5.80
2022-08-16T02:31:16.839Z,5.80
2022-08-16T02:33:54.373Z,6.40
2022-08-16T02:36:47.368Z,5.93
2022-08-16T02:39:19.642Z,6.50
2022-08-16T02:41:54.566Z,6.60
2022-08-16T02:44:23.683Z,6.57
2022-08-16T02:46:54.394Z,6.40
2022-08-16T02:49:32.261Z,6.60
2022-08-16T02:52:24.776Z,7.07
2022-08-16T02:54:59.486Z,7.67
2022-08-16T02:57:34.539Z,7.20
2022-08-16T03:00:31.880Z,7.33
2022-08-16T03:03:17.693Z,7.43
2022-08-16T03:05:52.975Z,7.33
2022-08-16T03:08:50.313Z,7.23
2022-08-16T03:11:16.638Z,5.97
2022-08-16T03:13:57.180Z,7.20
2022-08-16T03:16:58.741Z,7.30
2022-08-16T03:19:48.330Z,6.33
2022-08-16T03:22:29.752Z,7.10
2022-08-16T03:25:01.844Z,7.10
2022-08-16T03:27:32.549Z,6.13
2022-08-16T03:30:15.974Z,5.80
2022-08-16T03:32:51.398Z,6.27
2022-08-16T03:35:32.767Z,7.20
2022-08-16T03:38:32.573Z,7.70
2022-08-16T03:40:57.439Z,6.20
2022-08-16T03:43:51.423Z,6.10
2022-08-16T03:46:47.337Z,6.97
2022-08-16T03:49:10.783Z,6.73
2022-08-16T03:51:41.106Z,5.90
2022-08-16T03:54:12.384Z,6.20
2022-08-16T03:56:57.650Z,6.90
2022-08-16T03:59:25.858Z,6.40
2022-08-16T04:02:07.167Z,5.97
2022-08-16T04:04:45.741Z,6.97
2022-08-16T04:07:15.804Z,7.27
2022-08-16T04:09:59.232Z,8.40
2022-08-16T04:12:54.403Z,6.70
2022-08-16T04:15:26.404Z,6.67
2022-08-16T04:17:54.943Z,7.20
2022-08-16T04:20:29.432Z,7.13
2022-08-16T04:23:04.058Z,6.23
2022-08-16T04:25:46.933Z,6.80
2022-08-16T04:28:52.309Z,5.90
2022-08-16T04:31:33.338Z,6.20
2022-08-16T04:34:21.088Z,5.80
2022-08-16T04:36:52.321Z,5.70
2022-08-16T04:39:24.010Z,5.60
2022-08-16T04:41:56.650Z,5.20
2022-08-16T04:44:52.755Z,5.57
2022-08-16T04:47:21.603Z,6.00
2022-08-16T04:49:52.817Z,6.20
2022-08-16T04:52:33.080Z,6.47
2022-08-16T04:55:12.264Z,5.97
2022-08-16T04:57:41.320Z,5.70
2022-08-16T05:00:31.898Z,5.93
2022-08-16T05:03:08.536Z,5.60
2022-08-16T05:05:45.180Z,4.57
2022-08-16T05:08:28.109Z,5.50
2022-08-16T05:10:58.943Z,5.80
2022-08-16T05:13:41.176Z,5.53
2022-08-16T05:16:23.136Z,5.00
2022-08-16T05:18:56.803Z,4.72
2022-08-16T05:21:35.998Z,4.72
2022-08-16T05:24:09.043Z,5.05
2022-08-16T05:26:40.911Z,4.63
2022-08-16T05:29:14.651Z,6.88
2022-08-16T05:31:47.954Z,5.43
2022-08-16T05:34:19.394Z,5.13
2022-08-16T05:36:51.358Z,4.60
2022-08-16T05:39:20.705Z,4.75
2022-08-16T05:41:51.581Z,4.50
2022-08-16T05:44:23.248Z,4.30
2022-08-16T05:47:00.219Z,4.97
2022-08-16T05:49:38.244Z,3.90
2022-08-16T05:52:17.282Z,3.80
2022-08-16T05:55:01.006Z,3.58
2022-08-16T05:57:35.459Z,3.58
2022-08-16T06:00:09.293Z,3.45
2022-08-16T06:02:37.973Z,3.20
2022-08-16T06:05:06.657Z,3.70
2022-08-16T06:07:39.364Z,3.40
2022-08-16T06:10:09.812Z,3.20
2022-08-16T06:12:38.015Z,2.90
2022-08-16T06:15:10.839Z,3.05
2022-08-16T06:17:44.092Z,2.75
2022-08-16T06:20:23.971Z,2.40
2022-08-16T06:23:04.088Z,2.70
2022-08-16T06:25:39.811Z,2.55
2022-08-16T06:28:10.173Z,2.55
2022-08-16T06:30:45.121Z,2.78
2022-08-16T06:33:19.861Z,2.90
2022-08-16T06:35:54.989Z,3.58
2022-08-16T06:38:32.496Z,3.25
2022-08-16T06:41:13.738Z,4.35
2022-08-16T06:43:42.318Z,3.92
2022-08-16T06:46:34.620Z,3.28
2022-08-16T06:49:07.715Z,3.35
2022-08-16T06:51:46.407Z,3.17
2022-08-16T06:54:16.910Z,3.30
2022-08-16T06:56:46.805Z,4.38
2022-08-16T06:59:19.893Z,3.72
2022-08-16T07:01:55.151Z,3.75
2022-08-16T07:04:31.902Z,3.30
2022-08-16T07:07:02.103Z,3.50
2022-08-16T07:09:30.846Z,4.43
2022-08-16T07:12:05.357Z,3.88
2022-08-16T07:14:37.312Z,4.55
2022-08-16T07:17:08.322Z,5.35
2022-08-16T07:20:29.358Z,3.97
2022-08-16T07:22:39.253Z,3.15
2022-08-16T07:25:13.313Z,3.78
2022-08-16T07:28:00.532Z,4.32
2022-08-16T07:30:45.126Z,3.50
2022-08-16T07:33:21.437Z,3.67
2022-08-16T07:36:06.392Z,3.33
2022-08-16T07:38:34.814Z,3.92
2022-08-16T07:41:10.141Z,3.90
2022-08-16T07:43:40.285Z,3.45
2022-08-16T07:46:37.835Z,4.40
2022-08-16T07:49:02.482Z,3.53
2022-08-16T07:51:49.230Z,4.15
2022-08-16T07:54:32.139Z,3.70
2022-08-16T07:56:59.805Z,5.97
2022-08-16T07:59:45.562Z,3.40
2022-08-16T08:02:20.538Z,4.45
2022-08-16T08:04:49.015Z,3.90
2022-08-16T08:07:16.903Z,3.85
2022-08-16T08:09:44.590Z,2.95
2022-08-16T08:12:31.990Z,3.42
2022-08-16T08:15:11.192Z,3.42
2022-08-16T08:17:42.960Z,3.20
2022-08-16T08:20:18.597Z,3.38
2022-08-16T08:23:00.902Z,2.90
2022-08-16T08:25:53.791Z,2.88
2022-08-16T08:28:23.007Z,2.80
2022-08-16T08:31:00.622Z,2.97
2022-08-16T08:33:31.480Z,3.03
2022-08-16T08:36:03.132Z,3.38
2022-08-16T08:38:45.960Z,2.80
2022-08-16T08:41:15.460Z,2.50
2022-08-16T08:43:47.399Z,2.17
2022-08-16T08:46:21.639Z,2.15
2022-08-16T08:48:59.855Z,2.25
2022-08-16T08:51:50.295Z,2.42
2022-08-16T08:54:18.849Z,2.30
2022-08-16T08:56:48.155Z,2.40
2022-08-16T08:59:25.924Z,2.15
2022-08-16T09:01:56.522Z,1.85
2022-08-16T09:04:30.861Z,2.10
2022-08-16T09:07:03.914Z,2.17
2022-08-16T09:09:49.683Z,2.17
2022-08-16T09:12:36.002Z,2.13
2022-08-16T09:15:32.821Z,1.88
2022-08-16T09:18:27.068Z,2.00
2022-08-16T09:20:58.399Z,2.00
2022-08-16T09:23:36.415Z,2.30
2022-08-16T09:26:18.103Z,2.17
2022-08-16T09:29:16.200Z,1.77
2022-08-16T09:31:42.134Z,1.92
2022-08-16T09:34:10.464Z,1.95
2022-08-16T09:36:45.953Z,2.10
2022-08-16T09:39:16.659Z,1.98
2022-08-16T09:41:53.816Z,1.75
2022-08-16T09:45:12.740Z,1.80
2022-08-16T09:47:13.340Z,2.00
2022-08-16T09:49:41.342Z,1.85
2022-08-16T09:52:10.302Z,1.98
2022-08-16T09:54:44.582Z,1.90
2022-08-16T09:57:12.804Z,1.77
2022-08-16T09:59:42.075Z,1.70
2022-08-16T10:02:22.936Z,1.70
2022-08-16T10:04:57.293Z,1.52
2022-08-16T10:07:44.811Z,2.00
2022-08-16T10:10:18.810Z,1.70
2022-08-16T10:13:14.413Z,4.60
2022-08-16T10:15:55.111Z,1.55
2022-08-16T10:18:56.058Z,1.90
2022-08-16T10:21:16.993Z,1.65
2022-08-16T10:23:47.133Z,1.73
2022-08-16T10:27:17.953Z,2.20
2022-08-16T10:29:04.717Z,1.95
2022-08-16T10:31:44.153Z,2.00
2022-08-16T10:34:31.204Z,2.10
2022-08-16T10:37:00.770Z,2.40
2022-08-16T10:39:48.160Z,1.80
2022-08-16T10:42:17.441Z,2.35
2022-08-16T10:44:53.955Z,2.33
2022-08-16T10:47:22.359Z,2.35
2022-08-16T10:49:51.464Z,1.55
2022-08-16T10:52:19.994Z,1.80
2022-08-16T10:57:35.125Z,1.70
2022-08-16T11:00:21.159Z,1.92
2022-08-16T11:05:59.952Z,2.15
2022-08-16T11:08:35.589Z,6.85
2022-08-16T11:11:18.945Z,2.00
2022-08-16T11:14:10.815Z,2.17
2022-08-16T11:19:28.294Z,1.70
2022-08-16T11:22:22.942Z,1.50
2022-08-16T11:25:12.001Z,1.60
2022-08-16T11:27:36.331Z,1.70
2022-08-16T11:30:12.226Z,2.00
2022-08-16T11:32:47.445Z,1.67
2022-08-16T11:35:43.311Z,1.70
2022-08-16T11:38:46.562Z,1.92
2022-08-16T11:41:04.158Z,2.00
2022-08-16T11:43:34.607Z,1.67
2022-08-16T11:46:45.161Z,2.28
2022-08-16T11:49:00.387Z,1.60
2022-08-16T11:51:27.935Z,1.80
2022-08-16T11:53:55.337Z,1.80
2022-08-16T11:56:39.897Z,2.47
2022-08-16T11:59:10.253Z,2.15
2022-08-16T12:01:54.704Z,2.20
2022-08-16T12:04:24.108Z,3.40
2022-08-16T12:06:55.586Z,2.80
2022-08-16T12:09:31.113Z,2.30
2022-08-16T12:12:02.747Z,1.80
2022-08-16T12:14:35.293Z,1.95
2022-08-16T12:17:05.874Z,1.85
2022-08-16T12:19:38.614Z,2.03
2022-08-16T12:22:19.047Z,1.88
2022-08-16T12:24:52.007Z,1.92
2022-08-16T12:27:26.426Z,2.38
2022-08-16T12:29:54.457Z,2.47
2022-08-16T12:32:38.236Z,2.00
2022-08-16T12:35:13.303Z,1.92
2022-08-16T12:37:41.981Z,2.22
2022-08-16T12:40:23.962Z,2.00
2022-08-16T12:42:55.108Z,1.80
2022-08-16T12:45:51.294Z,1.67
2022-08-16T12:48:40.174Z,1.70
2022-08-16T12:51:19.584Z,1.67
2022-08-16T12:53:56.727Z,2.00
2022-08-16T12:56:30.073Z,1.98
2022-08-16T12:59:00.588Z,1.70
2022-08-16T13:01:33.460Z,1.80
2022-08-16T13:04:20.650Z,1.80
2022-08-16T13:06:50.285Z,1.92
2022-08-16T13:09:23.599Z,1.83
2022-08-16T13:12:10.170Z,1.80
2022-08-16T13:14:56.411Z,1.60
2022-08-16T13:17:31.371Z,1.60
2022-08-16T13:20:07.646Z,1.73
2022-08-16T13:22:38.224Z,1.90
2022-08-16T13:25:09.154Z,1.73
2022-08-16T13:28:01.817Z,2.10
2022-08-16T13:30:36.895Z,2.10
2022-08-16T13:33:13.180Z,2.33
2022-08-16T13:35:44.298Z,2.15
2022-08-16T13:38:25.132Z,2.00
2022-08-16T13:40:55.959Z,1.70
2022-08-16T13:43:27.100Z,1.90
2022-08-16T13:46:11.110Z,1.80
2022-08-16T13:48:46.580Z,1.98
2022-08-16T13:51:19.844Z,1.90
2022-08-16T13:54:08.360Z,1.98
2022-08-16T13:56:39.914Z,2.00
2022-08-16T13:59:34.617Z,2.08
2022-08-16T14:02:08.713Z,1.70
2022-08-16T14:05:34.854Z,1.75
2022-08-16T14:08:02.501Z,2.10
2022-08-16T14:10:30.965Z,1.63
2022-08-16T14:12:58.449Z,1.67
2022-08-16T14:15:43.967Z,1.77
2022-08-16T14:18:17.084Z,1.80
2022-08-16T14:20:48.406Z,1.73
2022-08-16T14:23:17.161Z,1.98
2022-08-16T14:25:54.096Z,1.70
2022-08-16T14:28:23.703Z,1.73
2022-08-16T14:30:53.447Z,1.80
2022-08-16T14:33:39.143Z,1.98
2022-08-16T14:36:07.468Z,2.10
2022-08-16T14:38:37.592Z,1.80
2022-08-16T14:41:10.387Z,1.80
2022-08-16T14:43:38.021Z,1.77
2022-08-16T14:46:07.799Z,1.88
2022-08-16T14:48:35.291Z,1.90
2022-08-16T14:51:02.720Z,1.90
2022-08-16T14:53:31.277Z,1.80
2022-08-16T14:56:00.739Z,1.80
2022-08-16T14:58:34.812Z,2.22
2022-08-16T15:01:10.047Z,1.80
2022-08-16T15:03:57.201Z,1.90
2022-08-16T15:06:24.660Z,1.80
2022-08-16T15:08:52.739Z,1.98
2022-08-16T15:11:20.163Z,1.95
2022-08-16T15:13:48.750Z,1.83
2022-08-16T15:16:18.998Z,1.90
2022-08-16T15:18:48.651Z,1.73
2022-08-16T15:21:16.063Z,2.17
2022-08-16T15:23:43.508Z,2.08
2022-08-16T15:26:18.556Z,1.95
2022-08-16T15:28:56.964Z,2.10
2022-08-16T15:31:27.494Z,1.90
2022-08-16T15:33:56.633Z,2.00
2022-08-16T15:36:25.895Z,2.00
2022-08-16T15:39:07.777Z,2.03
2022-08-16T15:41:43.521Z,2.90
2022-08-16T15:44:21.228Z,2.30
2022-08-16T15:46:56.802Z,2.33
2022-08-16T15:49:37.626Z,2.38
2022-08-16T15:52:42.742Z,2.63
2022-08-16T15:55:29.624Z,2.40
2022-08-16T15:58:01.056Z,2.70
2022-08-16T16:00:48.365Z,2.75
2022-08-16T16:03:19.814Z,3.00
2022-08-16T16:05:53.634Z,2.78
2022-08-16T16:08:31.776Z,2.75
2022-08-16T16:11:03.478Z,2.97
2022-08-16T16:13:34.384Z,3.70
2022-08-16T16:16:03.820Z,2.60
2022-08-16T16:18:40.429Z,3.88
2022-08-16T16:21:14.132Z,2.90
2022-08-16T16:23:54.727Z,2.78
2022-08-16T16:26:25.060Z,3.28
2022-08-16T16:29:07.699Z,3.78
2022-08-16T16:31:59.768Z,2.67
2022-08-16T16:34:32.317Z,2.58
2022-08-16T16:37:02.870Z,3.10
2022-08-16T16:39:48.566Z,2.90
2022-08-16T16:42:29.264Z,3.08
2022-08-16T16:45:01.727Z,2.80
2022-08-16T16:47:38.006Z,3.05
2022-08-16T16:50:10.158Z,2.97
2022-08-16T16:52:43.861Z,2.97
2022-08-16T16:55:14.809Z,3.20
2022-08-16T16:58:03.143Z,2.88
2022-08-16T17:00:37.946Z,3.42
2022-08-16T17:03:25.047Z,3.47
2022-08-16T17:06:09.153Z,3.00
2022-08-16T17:08:40.695Z,3.47
2022-08-16T17:11:12.661Z,3.25
2022-08-16T17:13:40.599Z,3.80
2022-08-16T17:16:09.200Z,3.30
2022-08-16T17:19:15.591Z,3.30
2022-08-16T17:21:40.142Z,3.38
2022-08-16T17:24:17.648Z,3.10
2022-08-16T17:26:48.822Z,2.88
2022-08-16T17:29:16.600Z,2.85
2022-08-16T17:31:45.579Z,2.97
2022-08-16T17:34:30.124Z,2.88
2022-08-16T17:37:00.798Z,2.65
2022-08-16T17:39:58.070Z,2.70
2022-08-16T17:42:27.717Z,2.90
2022-08-16T17:44:55.057Z,2.95
2022-08-16T17:47:22.671Z,3.28
2022-08-16T17:49:53.227Z,3.03
2022-08-16T17:52:20.522Z,2.70
2022-08-16T17:54:47.830Z,2.47
2022-08-16T17:57:15.261Z,2.42
2022-08-16T17:59:44.453Z,2.60
2022-08-16T18:02:42.284Z,2.63
2022-08-16T18:04:59.225Z,2.72
2022-08-16T18:07:26.680Z,2.70
2022-08-16T18:10:12.327Z,2.55
2022-08-16T18:12:54.817Z,3.20
2022-08-16T18:15:27.043Z,2.70
2022-08-16T18:17:54.882Z,2.47
2022-08-16T18:20:41.981Z,2.60
2022-08-16T18:23:18.696Z,2.40
2022-08-16T18:25:52.044Z,2.83
2022-08-16T18:28:19.927Z,3.45
2022-08-16T18:30:51.457Z,3.33
2022-08-16T18:33:24.884Z,3.60
2022-08-16T18:35:57.461Z,4.03
2022-08-16T18:38:25.375Z,3.50
2022-08-16T18:40:52.960Z,3.00
2022-08-16T18:44:24.294Z,3.55
2022-08-16T18:46:09.606Z,3.00
2022-08-16T18:48:36.890Z,3.38
2022-08-16T18:51:09.280Z,3.40
2022-08-16T18:53:38.883Z,3.42
2022-08-16T18:56:06.265Z,2.85
2022-08-16T18:58:34.120Z,2.92
2022-08-16T19:05:23.643Z,4.40
2022-08-16T19:07:51.512Z,3.90
2022-08-16T19:10:19.324Z,4.57
2022-08-16T19:12:46.615Z,4.60
2022-08-16T19:15:35.118Z,4.90
2022-08-16T19:18:21.942Z,3.78
2022-08-16T19:21:05.854Z,4.28
2022-08-16T19:23:35.741Z,4.75
2022-08-16T19:26:07.208Z,3.88
2022-08-16T19:28:49.031Z,4.07
2022-08-16T19:31:29.265Z,3.63
2022-08-16T19:34:04.476Z,4.47
2022-08-16T19:36:36.776Z,4.05
2022-08-16T19:39:23.226Z,4.38
2022-08-16T19:41:56.453Z,3.72
2022-08-16T19:44:23.729Z,4.00
2022-08-16T19:46:51.264Z,4.32
2022-08-16T19:49:18.437Z,3.88
2022-08-16T19:56:31.534Z,3.90
2022-08-16T19:59:19.440Z,2.97
2022-08-16T20:01:58.178Z,3.92
2022-08-16T20:04:43.835Z,4.32
2022-08-16T20:07:40.428Z,4.32
2022-08-16T20:10:30.763Z,3.50
2022-08-16T20:13:10.641Z,3.55
2022-08-16T20:16:11.641Z,4.25
2022-08-16T20:18:50.908Z,3.80
2022-08-16T20:21:33.674Z,3.30
2022-08-16T20:24:32.993Z,3.38
2022-08-16T20:30:27.364Z,3.85
2022-08-16T20:33:22.748Z,3.45
2022-08-16T20:40:35.572Z,3.65
2022-08-16T20:44:10.123Z,3.58
2022-08-16T20:47:11.702Z,3.70
2022-08-16T20:49:49.588Z,3.97
2022-08-16T20:52:44.428Z,4.05
2022-08-16T20:55:18.920Z,3.55
2022-08-16T20:57:55.916Z,3.50
2022-08-16T21:00:23.462Z,4.00
2022-08-16T21:02:59.538Z,3.70
2022-08-16T21:05:31.162Z,3.45
2022-08-16T21:08:03.186Z,3.53
2022-08-16T21:10:52.829Z,3.50
2022-08-16T21:13:24.709Z,3.42
2022-08-16T21:15:54.850Z,3.42
2022-08-16T21:18:22.183Z,3.53
2022-08-16T21:20:49.354Z,4.00
2022-08-16T21:23:16.660Z,3.72
2022-08-16T21:26:00.608Z,3.85
2022-08-16T21:28:40.193Z,4.45
2022-08-16T21:31:15.329Z,4.10
2022-08-16T21:34:02.332Z,4.60
2022-08-16T21:36:35.590Z,3.70
2022-08-16T21:39:24.465Z,3.53
2022-08-16T21:42:00.770Z,3.40
2022-08-16T21:44:32.562Z,3.70
2022-08-16T21:47:10.503Z,3.58
2022-08-16T21:50:14.057Z,3.70
2022-08-16T21:53:03.966Z,3.75
2022-08-16T21:55:40.532Z,4.55
2022-08-16T21:58:24.640Z,3.93
2022-08-16T22:01:04.891Z,4.20
2022-08-16T22:03:44.331Z,3.90
2022-08-16T22:06:22.232Z,4.03
2022-08-16T22:08:58.109Z,3.55
2022-08-16T22:11:33.342Z,3.63
2022-08-16T22:14:04.427Z,3.60
2022-08-16T22:16:47.311Z,3.80
2022-08-16T22:19:14.747Z,3.30
2022-08-16T22:22:00.601Z,3.40
2022-08-16T22:24:27.776Z,3.10
2022-08-16T22:27:04.559Z,3.83
2022-08-16T22:29:34.022Z,3.20
2022-08-16T22:32:26.683Z,3.33
2022-08-16T22:35:10.827Z,3.63
2022-08-16T22:37:41.909Z,4.00
2022-08-16T22:40:28.995Z,3.53
2022-08-16T22:43:11.937Z,3.47
2022-08-16T22:45:57.671Z,3.50
2022-08-16T22:48:24.774Z,3.60
2022-08-16T22:50:52.915Z,3.70
2022-08-16T22:53:41.764Z,3.83
2022-08-16T22:56:27.122Z,3.80
2022-08-16T23:02:16.981Z,4.07
2022-08-16T23:04:56.312Z,4.37
2022-08-16T23:07:47.304Z,3.80
2022-08-16T23:10:41.303Z,4.60
2022-08-16T23:13:32.639Z,3.67
2022-08-16T23:16:48.650Z,4.10
2022-08-16T23:19:17.032Z,4.00
2022-08-16T23:22:09.313Z,3.60
2022-08-16T23:24:58.559Z,4.10
2022-08-16T23:28:02.118Z,4.07
2022-08-16T23:30:52.183Z,4.20
2022-08-16T23:33:37.911Z,4.20
2022-08-16T23:36:05.628Z,3.50
2022-08-16T23:38:38.284Z,3.60
2022-08-16T23:41:17.082Z,3.90
2022-08-16T23:43:45.043Z,4.03
2022-08-16T23:46:17.478Z,4.07
2022-08-16T23:50:01.598Z,4.07
2022-08-16T23:51:56.179Z,4.80
2022-08-16T23:54:41.914Z,4.43
2022-08-16T23:57:08.994Z,4.40
2022-08-16T23:59:52.642Z,4.37
